createdAt,value
2022-12-11T00:02:08.668Z,88.10
2022-12-11T00:04:35.405Z,88.10
2022-12-11T00:07:02.043Z,88.00
2022-12-11T00:09:28.754Z,88.00
2022-12-11T00:11:55.357Z,88.00
2022-12-11T00:14:22.008Z,88.00
2022-12-11T00:16:48.643Z,88.00
2022-12-11T00:19:15.864Z,87.90
2022-12-11T00:21:42.517Z,87.80
2022-12-11T00:24:09.170Z,87.80
2022-12-11T00:26:35.764Z,87.80
2022-12-11T00:29:02.413Z,87.80
2022-12-11T00:31:29.202Z,87.80
2022-12-11T00:33:55.822Z,87.70
2022-12-11T00:36:24.135Z,87.70
2022-12-11T00:38:50.931Z,87.70
2022-12-11T00:41:17.750Z,87.60
2022-12-11T00:43:44.422Z,87.50
2022-12-11T00:46:11.257Z,87.50
2022-12-11T00:48:38.231Z,87.50
2022-12-11T00:51:05.079Z,87.40
2022-12-11T00:53:31.710Z,87.30
2022-12-11T00:55:58.401Z,87.40
2022-12-11T00:58:25.118Z,87.40
2022-12-11T01:00:52.082Z,87.40
2022-12-11T01:03:18.688Z,87.40
2022-12-11T01:05:53.008Z,87.40
2022-12-11T01:08:19.668Z,87.30
2022-12-11T01:10:46.470Z,87.20
2022-12-11T01:13:13.135Z,87.20
2022-12-11T01:15:43.494Z,87.30
2022-12-11T01:18:11.049Z,87.10
2022-12-11T01:20:39.317Z,87.10
2022-12-11T01:23:06.025Z,87.10
2022-12-11T01:25:32.866Z,87.00
2022-12-11T01:27:59.538Z,87.00
2022-12-11T01:30:26.602Z,87.00
2022-12-11T01:32:53.488Z,87.00
2022-12-11T01:35:20.277Z,86.90
2022-12-11T01:37:46.929Z,87.00
2022-12-11T01:40:14.337Z,86.90
2022-12-11T01:42:41.024Z,86.80
2022-12-11T01:45:26.644Z,86.80
2022-12-11T01:48:08.708Z,86.80
2022-12-11T01:50:48.276Z,86.80
2022-12-11T01:53:17.948Z,86.70
2022-12-11T01:55:44.635Z,86.60
2022-12-11T01:58:11.265Z,86.40
2022-12-11T02:03:23.516Z,86.50
2022-12-11T02:05:50.319Z,86.50
2022-12-11T02:08:17.000Z,86.40
2022-12-11T02:10:56.193Z,86.50
2022-12-11T02:13:27.771Z,86.50
2022-12-11T02:16:14.934Z,86.50
2022-12-11T02:18:46.762Z,86.30
2022-12-11T02:21:15.565Z,86.20
2022-12-11T02:24:06.476Z,86.20
2022-12-11T02:26:54.919Z,86.10
2022-12-11T02:29:26.243Z,86.00
2022-12-11T02:32:18.947Z,86.00
2022-12-11T02:35:20.191Z,86.00
2022-12-11T02:37:47.589Z,85.80
2022-12-11T02:40:15.400Z,85.80
2022-12-11T02:42:43.142Z,85.80
2022-12-11T02:45:10.448Z,85.80
2022-12-11T02:47:37.282Z,85.80
2022-12-11T02:50:04.237Z,85.60
2022-12-11T02:52:30.980Z,85.70
2022-12-11T02:54:58.004Z,85.70
2022-12-11T02:57:31.162Z,85.60
2022-12-11T02:59:57.893Z,85.60
2022-12-11T03:02:24.612Z,85.70
2022-12-11T03:04:51.394Z,85.50
2022-12-11T03:07:20.617Z,85.30
2022-12-11T03:09:47.707Z,85.40
2022-12-11T03:12:27.353Z,85.40
2022-12-11T03:14:53.979Z,85.30
2022-12-11T03:17:25.688Z,85.20
2022-12-11T03:20:10.312Z,85.20
2022-12-11T03:22:47.491Z,85.10
2022-12-11T03:25:36.881Z,85.20
2022-12-11T03:28:10.524Z,85.10
2022-12-11T03:30:37.330Z,85.20
2022-12-11T03:33:09.292Z,85.20
2022-12-11T03:35:45.711Z,85.10
2022-12-11T03:38:43.263Z,85.00
2022-12-11T03:41:09.902Z,85.10
2022-12-11T03:43:36.516Z,85.00
2022-12-11T03:46:03.217Z,85.10
2022-12-11T03:48:33.798Z,85.10
2022-12-11T03:51:01.752Z,85.00
2022-12-11T03:53:28.417Z,85.00
2022-12-11T03:55:55.272Z,85.00
2022-12-11T03:58:21.953Z,85.00
2022-12-11T04:00:48.741Z,84.90
2022-12-11T04:03:15.385Z,84.90
2022-12-11T04:05:43.632Z,84.90
2022-12-11T04:08:10.603Z,84.80
2022-12-11T04:10:37.418Z,84.90
2022-12-11T04:13:04.158Z,84.90
2022-12-11T04:15:30.838Z,84.80
2022-12-11T04:17:57.542Z,84.80
2022-12-11T04:20:24.223Z,84.80
2022-12-11T04:22:50.886Z,84.70
2022-12-11T04:25:17.645Z,84.70
2022-12-11T04:27:44.228Z,84.70
2022-12-11T04:30:13.836Z,84.70
2022-12-11T04:32:40.517Z,84.70
2022-12-11T04:35:08.741Z,84.70
2022-12-11T04:37:35.864Z,84.70
2022-12-11T04:40:03.673Z,84.60
2022-12-11T04:42:30.362Z,84.50
2022-12-11T04:44:56.982Z,84.60
2022-12-11T04:47:23.625Z,84.50
2022-12-11T04:49:50.204Z,84.40
2022-12-11T04:52:17.862Z,84.40
2022-12-11T04:54:44.481Z,84.40
2022-12-11T04:57:11.060Z,84.40
2022-12-11T04:59:37.765Z,84.40
2022-12-11T05:02:14.904Z,84.40
2022-12-11T05:04:41.594Z,84.40
2022-12-11T05:07:08.231Z,84.40
2022-12-11T05:09:35.780Z,84.30
2022-12-11T05:12:04.993Z,84.30
2022-12-11T05:14:31.632Z,84.30
2022-12-11T05:16:59.320Z,84.30
2022-12-11T05:19:26.036Z,84.20
2022-12-11T05:21:52.805Z,84.20
2022-12-11T05:24:19.466Z,84.30
2022-12-11T05:26:46.227Z,84.20
2022-12-11T05:29:12.824Z,84.10
2022-12-11T05:31:39.504Z,84.10
2022-12-11T05:34:06.270Z,84.20
2022-12-11T05:36:33.355Z,84.20
2022-12-11T05:39:00.223Z,84.20
2022-12-11T05:41:27.919Z,84.10
2022-12-11T05:43:54.704Z,84.10
2022-12-11T05:46:23.259Z,84.10
2022-12-11T05:48:51.081Z,84.20
2022-12-11T05:51:17.788Z,84.10
2022-12-11T05:53:44.980Z,84.10
2022-12-11T05:56:16.051Z,84.10
2022-12-11T05:58:43.047Z,84.00
2022-12-11T06:01:22.934Z,84.10
2022-12-11T06:03:49.583Z,84.10
2022-12-11T06:06:16.231Z,84.20
2022-12-11T06:08:42.893Z,84.20
2022-12-11T06:11:09.579Z,84.30
2022-12-11T06:13:36.224Z,84.20
2022-12-11T06:16:03.876Z,84.30
2022-12-11T06:18:30.749Z,84.30
2022-12-11T06:20:57.463Z,84.30
2022-12-11T06:23:24.198Z,84.30
2022-12-11T06:25:50.820Z,84.30
2022-12-11T06:28:17.422Z,84.30
2022-12-11T06:30:44.072Z,84.30
2022-12-11T06:33:11.014Z,84.40
2022-12-11T06:35:42.011Z,84.40
2022-12-11T06:38:09.733Z,84.40
2022-12-11T06:40:36.528Z,84.40
2022-12-11T06:43:03.109Z,84.40
2022-12-11T06:45:29.820Z,84.50
2022-12-11T06:47:56.548Z,84.50
2022-12-11T06:50:23.198Z,84.50
2022-12-11T06:52:49.891Z,84.50
2022-12-11T06:55:16.719Z,84.50
2022-12-11T06:57:43.354Z,84.50
2022-12-11T07:00:10.668Z,84.50
2022-12-11T07:02:37.475Z,84.60
2022-12-11T07:05:04.554Z,84.60
2022-12-11T07:07:32.373Z,84.70
2022-12-11T07:10:04.201Z,84.70
2022-12-11T07:12:34.441Z,84.70
2022-12-11T07:15:01.258Z,84.70
2022-12-11T07:17:29.011Z,84.80
2022-12-11T07:19:56.039Z,84.70
2022-12-11T07:22:22.833Z,84.80
2022-12-11T07:24:49.481Z,84.80
2022-12-11T07:27:16.137Z,84.80
2022-12-11T07:29:42.805Z,84.80
2022-12-11T07:32:09.591Z,84.80
2022-12-11T07:34:36.759Z,84.80
2022-12-11T07:37:03.650Z,84.80
2022-12-11T07:39:30.249Z,84.80
2022-12-11T07:41:56.943Z,84.80
2022-12-11T07:44:23.705Z,84.90
2022-12-11T07:46:50.341Z,85.00
2022-12-11T07:49:17.175Z,84.90
2022-12-11T07:51:43.879Z,84.90
2022-12-11T07:54:12.176Z,84.90
2022-12-11T07:56:41.849Z,84.90
2022-12-11T07:59:10.458Z,85.00
2022-12-11T08:01:40.256Z,85.00
2022-12-11T08:04:10.385Z,85.00
2022-12-11T08:06:37.569Z,85.00
2022-12-11T08:09:06.301Z,85.00
2022-12-11T08:11:33.043Z,85.00
2022-12-11T08:13:59.738Z,84.90
2022-12-11T08:16:26.614Z,84.90
2022-12-11T08:18:53.365Z,85.00
2022-12-11T08:21:21.909Z,85.00
2022-12-11T08:23:49.043Z,85.00
2022-12-11T08:26:27.023Z,85.10
2022-12-11T08:28:53.803Z,85.10
2022-12-11T08:31:22.727Z,85.10
2022-12-11T08:33:49.529Z,85.10
2022-12-11T08:36:17.808Z,85.20
2022-12-11T08:38:44.577Z,85.10
2022-12-11T08:41:12.980Z,85.10
2022-12-11T08:43:39.643Z,85.20
2022-12-11T08:46:06.355Z,85.10
2022-12-11T08:48:34.104Z,85.20
2022-12-11T08:51:01.756Z,85.20
2022-12-11T08:53:29.704Z,85.30
2022-12-11T08:56:07.226Z,85.40
2022-12-11T08:58:33.895Z,85.30
2022-12-11T09:01:00.634Z,85.30
2022-12-11T09:03:27.248Z,85.30
2022-12-11T09:05:53.844Z,85.40
2022-12-11T09:08:20.603Z,85.30
2022-12-11T09:10:47.283Z,85.40
2022-12-11T09:13:13.911Z,85.40
2022-12-11T09:15:41.049Z,85.30
2022-12-11T09:18:08.130Z,85.30
2022-12-11T09:20:34.813Z,85.30
2022-12-11T09:23:01.560Z,85.30
2022-12-11T09:25:28.162Z,85.40
2022-12-11T09:27:54.739Z,85.40
2022-12-11T09:30:21.345Z,85.40
2022-12-11T09:32:47.937Z,85.50
2022-12-11T09:35:14.571Z,85.40
2022-12-11T09:37:41.227Z,85.40
2022-12-11T09:40:10.717Z,85.40
2022-12-11T09:43:05.579Z,85.40
2022-12-11T09:45:32.128Z,85.50
2022-12-11T09:47:58.856Z,85.40
2022-12-11T09:50:35.680Z,85.40
2022-12-11T09:53:15.187Z,85.30
2022-12-11T09:56:20.812Z,85.40
2022-12-11T09:58:56.357Z,85.30
2022-12-11T10:01:39.544Z,85.20
2022-12-11T10:04:36.577Z,85.20
2022-12-11T10:07:13.394Z,85.20
2022-12-11T10:09:49.763Z,85.40
2022-12-11T10:12:26.200Z,85.30
2022-12-11T10:15:30.165Z,85.20
2022-12-11T10:18:02.907Z,85.10
2022-12-11T10:20:35.434Z,85.00
2022-12-11T10:23:03.038Z,85.00
2022-12-11T10:25:37.913Z,84.90
2022-12-11T10:28:17.109Z,84.90
2022-12-11T10:30:58.560Z,84.90
2022-12-11T10:33:43.672Z,84.80
2022-12-11T10:36:10.652Z,84.80
2022-12-11T10:38:43.872Z,84.70
2022-12-11T10:41:17.412Z,84.60
2022-12-11T10:43:45.548Z,84.60
2022-12-11T10:46:20.411Z,84.60
2022-12-11T10:48:51.617Z,84.50
2022-12-11T10:51:18.256Z,84.50
2022-12-11T10:53:50.358Z,84.40
2022-12-11T10:56:27.764Z,84.30
2022-12-11T10:58:54.367Z,84.20
2022-12-11T11:01:23.050Z,84.10
2022-12-11T11:04:23.932Z,84.10
2022-12-11T11:07:04.605Z,83.80
2022-12-11T11:09:35.673Z,83.70
2022-12-11T11:12:08.060Z,83.70
2022-12-11T11:18:11.321Z,83.50
2022-12-11T11:20:43.815Z,83.40
2022-12-11T11:26:02.475Z,83.10
2022-12-11T11:28:41.039Z,82.90
2022-12-11T11:31:12.140Z,82.80
2022-12-11T11:33:55.835Z,82.60
2022-12-11T11:36:24.772Z,82.40
2022-12-11T11:39:02.680Z,82.30
2022-12-11T11:41:53.216Z,82.10
2022-12-11T11:44:31.689Z,81.90
2022-12-11T11:47:10.400Z,82.10
2022-12-11T11:50:06.454Z,81.80
2022-12-11T11:52:35.794Z,81.70
2022-12-11T11:55:09.843Z,81.60
2022-12-11T11:57:40.039Z,81.40
2022-12-11T12:00:18.522Z,81.20
2022-12-11T12:02:45.192Z,81.10
2022-12-11T12:05:14.984Z,80.90
2022-12-11T12:08:00.581Z,80.90
2022-12-11T12:10:35.714Z,80.70
2022-12-11T12:13:48.515Z,80.50
2022-12-11T12:16:56.377Z,80.50
2022-12-11T12:19:59.065Z,80.10
2022-12-11T12:22:44.961Z,80.00
2022-12-11T12:25:41.212Z,79.80
2022-12-11T12:28:52.453Z,79.60
2022-12-11T12:31:39.195Z,79.70
2022-12-11T12:34:27.982Z,79.70
2022-12-11T12:37:06.742Z,79.70
2022-12-11T12:39:36.278Z,79.50
2022-12-11T12:42:23.909Z,79.10
2022-12-11T12:45:12.781Z,79.20
2022-12-11T12:47:51.864Z,79.20
2022-12-11T12:50:27.253Z,79.20
2022-12-11T12:52:54.138Z,79.10
2022-12-11T12:55:21.559Z,79.20
2022-12-11T12:58:08.169Z,79.00
2022-12-11T13:00:43.298Z,78.60
2022-12-11T13:03:22.878Z,78.50
2022-12-11T13:06:06.418Z,78.50
2022-12-11T13:08:48.675Z,78.40
2022-12-11T13:11:20.411Z,78.50
2022-12-11T13:14:09.093Z,78.30
2022-12-11T13:16:40.479Z,78.30
2022-12-11T13:19:42.728Z,78.20
2022-12-11T13:22:24.019Z,77.80
2022-12-11T13:25:02.649Z,77.90
2022-12-11T13:27:40.079Z,78.00
2022-12-11T13:30:27.709Z,78.00
2022-12-11T13:33:06.570Z,78.10
2022-12-11T13:35:34.981Z,77.90
2022-12-11T13:38:04.934Z,77.60
2022-12-11T13:40:43.248Z,77.40
2022-12-11T13:43:28.155Z,77.40
2022-12-11T13:46:02.643Z,77.20
2022-12-11T13:48:37.621Z,77.10
2022-12-11T13:51:04.813Z,77.10
2022-12-11T13:53:32.241Z,77.00
2022-12-11T13:56:10.209Z,76.90
2022-12-11T13:58:41.205Z,76.90
2022-12-11T14:01:53.731Z,76.90
2022-12-11T14:04:28.354Z,76.60
2022-12-11T14:06:58.813Z,76.50
2022-12-11T14:09:27.066Z,76.50
2022-12-11T14:11:57.051Z,76.50
2022-12-11T14:14:36.917Z,76.50
2022-12-11T14:17:08.636Z,76.50
2022-12-11T14:19:51.109Z,76.50
2022-12-11T14:22:25.686Z,76.60
2022-12-11T14:24:54.754Z,76.50
2022-12-11T14:27:25.994Z,76.20
2022-12-11T14:29:53.877Z,76.30
2022-12-11T14:32:47.404Z,76.20
2022-12-11T14:35:52.224Z,76.10
2022-12-11T14:38:38.012Z,76.30
2022-12-11T14:41:36.152Z,76.20
2022-12-11T14:44:09.139Z,76.10
2022-12-11T14:46:37.903Z,76.10
2022-12-11T14:49:18.129Z,76.00
2022-12-11T14:51:46.087Z,76.10
2022-12-11T14:54:36.989Z,76.10
2022-12-11T14:57:05.722Z,76.10
2022-12-11T14:59:46.847Z,76.10
2022-12-11T15:02:32.943Z,76.00
2022-12-11T15:05:18.281Z,76.00
2022-12-11T15:08:21.193Z,76.10
2022-12-11T15:11:16.122Z,76.00
2022-12-11T15:14:09.190Z,76.10
2022-12-11T15:16:42.587Z,76.00
2022-12-11T15:19:24.731Z,76.00
2022-12-11T15:21:52.223Z,75.90
2022-12-11T15:24:30.788Z,76.00
2022-12-11T15:27:01.308Z,76.10
2022-12-11T15:29:37.976Z,76.20
2022-12-11T15:32:17.601Z,76.40
2022-12-11T15:34:58.750Z,76.30
2022-12-11T15:37:31.383Z,76.50
2022-12-11T15:40:00.954Z,76.50
2022-12-11T15:42:46.962Z,76.50
2022-12-11T15:45:34.239Z,76.60
2022-12-11T15:48:03.486Z,76.60
2022-12-11T15:50:31.809Z,76.60
2022-12-11T15:53:00.300Z,76.70
2022-12-11T15:55:27.506Z,76.80
2022-12-11T15:57:56.930Z,76.80
2022-12-11T16:00:25.665Z,76.80
2022-12-11T16:02:57.725Z,76.90
2022-12-11T16:05:29.549Z,76.90
2022-12-11T16:07:57.076Z,77.00
2022-12-11T16:10:27.893Z,77.00
2022-12-11T16:13:02.258Z,77.00
2022-12-11T16:15:30.070Z,77.10
2022-12-11T16:18:03.442Z,77.10
2022-12-11T16:20:31.717Z,77.10
2022-12-11T16:23:01.796Z,77.00
2022-12-11T16:25:31.192Z,77.10
2022-12-11T16:27:59.845Z,77.20
2022-12-11T16:30:33.408Z,77.20
2022-12-11T16:33:08.611Z,77.20
2022-12-11T16:35:39.876Z,77.20
2022-12-11T16:38:09.180Z,77.30
2022-12-11T16:40:40.457Z,77.40
2022-12-11T16:43:08.925Z,77.30
2022-12-11T16:45:36.246Z,77.30
2022-12-11T16:48:05.955Z,77.40
2022-12-11T16:50:35.351Z,77.50
2022-12-11T16:53:03.449Z,77.50
2022-12-11T16:55:33.443Z,77.40
2022-12-11T16:58:04.506Z,77.50
2022-12-11T17:00:31.404Z,77.50
2022-12-11T17:03:05.818Z,77.50
2022-12-11T17:05:36.090Z,77.70
2022-12-11T17:08:04.910Z,77.70
2022-12-11T17:10:31.967Z,77.80
2022-12-11T17:13:01.134Z,77.90
2022-12-11T17:15:29.197Z,77.90
2022-12-11T17:17:58.597Z,77.80
2022-12-11T17:20:28.048Z,77.90
2022-12-11T17:22:57.077Z,77.80
2022-12-11T17:25:25.761Z,77.80
2022-12-11T17:27:53.991Z,77.90
2022-12-11T17:30:22.318Z,78.00
2022-12-11T17:32:52.129Z,78.00
2022-12-11T17:35:19.707Z,77.90
2022-12-11T17:37:48.720Z,77.90
2022-12-11T17:40:16.058Z,78.00
2022-12-11T17:42:43.179Z,78.00
2022-12-11T17:45:13.609Z,78.00
2022-12-11T17:47:41.417Z,78.10
2022-12-11T17:50:11.917Z,78.00
2022-12-11T17:52:43.967Z,78.10
2022-12-11T17:55:13.387Z,78.00
2022-12-11T17:57:41.968Z,78.00
2022-12-11T18:00:12.715Z,78.00
2022-12-11T18:02:40.095Z,78.00
2022-12-11T18:05:07.034Z,78.10
2022-12-11T18:07:36.967Z,78.10
2022-12-11T18:10:03.914Z,78.20
2022-12-11T18:12:30.642Z,78.10
2022-12-11T18:15:01.374Z,78.10
2022-12-11T18:17:28.384Z,78.20
2022-12-11T18:19:55.067Z,78.30
2022-12-11T18:22:21.778Z,78.30
2022-12-11T18:24:48.471Z,78.20
2022-12-11T18:27:15.312Z,78.30
2022-12-11T18:29:42.820Z,78.50
2022-12-11T18:32:09.841Z,78.50
2022-12-11T18:34:36.861Z,78.60
2022-12-11T18:37:05.595Z,78.70
2022-12-11T18:39:32.686Z,78.70
2022-12-11T18:42:31.173Z,78.70
2022-12-11T18:44:46.743Z,78.70
2022-12-11T18:47:13.734Z,78.80
2022-12-11T18:49:40.871Z,78.90
2022-12-11T18:52:10.901Z,78.80
2022-12-11T18:54:37.879Z,79.00
2022-12-11T18:57:04.933Z,79.10
2022-12-11T18:59:31.817Z,79.00
2022-12-11T19:01:58.547Z,78.90
2022-12-11T19:04:25.184Z,78.90
2022-12-11T19:06:51.849Z,79.10
2022-12-11T19:09:18.515Z,79.10
2022-12-11T19:11:45.490Z,79.10
2022-12-11T19:14:12.625Z,79.20
2022-12-11T19:16:41.208Z,79.30
2022-12-11T19:19:28.258Z,79.30
2022-12-11T19:21:55.007Z,79.30
2022-12-11T19:24:22.345Z,79.40
2022-12-11T19:26:49.534Z,79.40
2022-12-11T19:29:25.479Z,79.50
2022-12-11T19:31:52.470Z,79.60
2022-12-11T19:34:19.332Z,79.70
2022-12-11T19:36:46.152Z,79.60
2022-12-11T19:39:13.466Z,79.70
2022-12-11T19:41:40.529Z,79.80
2022-12-11T19:44:07.197Z,80.00
2022-12-11T19:46:34.172Z,80.00
2022-12-11T19:49:01.110Z,80.10
2022-12-11T19:51:30.094Z,80.10
2022-12-11T19:53:57.257Z,80.00
2022-12-11T19:56:24.137Z,80.10
2022-12-11T19:58:50.970Z,80.20
2022-12-11T20:01:22.157Z,80.20
2022-12-11T20:03:49.086Z,80.20
2022-12-11T20:06:15.937Z,80.30
2022-12-11T20:08:45.716Z,80.20
2022-12-11T20:11:17.855Z,80.30
2022-12-11T20:13:45.622Z,80.30
2022-12-11T20:16:12.623Z,80.30
2022-12-11T20:18:40.348Z,80.30
2022-12-11T20:21:14.961Z,80.40
2022-12-11T20:23:42.094Z,80.30
2022-12-11T20:26:13.880Z,80.40
2022-12-11T20:28:40.544Z,80.30
2022-12-11T20:31:20.305Z,80.30
2022-12-11T20:33:47.752Z,80.40
2022-12-11T20:36:14.998Z,80.50
2022-12-11T20:38:42.208Z,80.50
2022-12-11T20:41:11.124Z,80.50
2022-12-11T20:43:38.096Z,80.30
2022-12-11T20:46:12.107Z,80.20
2022-12-11T20:48:39.044Z,80.00
2022-12-11T20:51:07.063Z,80.00
2022-12-11T20:53:34.462Z,80.10
2022-12-11T20:56:01.875Z,80.10
2022-12-11T20:58:42.065Z,80.10
2022-12-11T21:01:52.695Z,80.10
2022-12-11T21:04:20.261Z,80.10
2022-12-11T21:06:47.052Z,80.30
2022-12-11T21:09:16.097Z,80.30
2022-12-11T21:11:43.352Z,80.50
2022-12-11T21:14:10.203Z,80.60
2022-12-11T21:16:37.223Z,80.90
2022-12-11T21:19:04.234Z,81.10
2022-12-11T21:21:34.584Z,81.30
2022-12-11T21:24:01.207Z,81.40
2022-12-11T21:26:30.188Z,81.40
2022-12-11T21:28:56.895Z,81.50
2022-12-11T21:31:23.708Z,81.50
2022-12-11T21:33:50.507Z,81.70
2022-12-11T21:36:17.680Z,81.60
2022-12-11T21:38:44.969Z,81.70
2022-12-11T21:41:22.432Z,81.70
2022-12-11T21:45:06.992Z,81.60
2022-12-11T21:46:36.976Z,81.70
2022-12-11T21:49:03.732Z,81.60
2022-12-11T21:51:36.465Z,81.60
2022-12-11T21:54:05.374Z,81.60
2022-12-11T21:56:32.130Z,81.70
2022-12-11T21:58:58.908Z,81.70
2022-12-11T22:01:30.027Z,81.70
2022-12-11T22:03:57.280Z,81.60
2022-12-11T22:06:24.012Z,81.70
2022-12-11T22:08:50.873Z,81.60
2022-12-11T22:11:23.440Z,81.50
2022-12-11T22:13:50.204Z,81.50
2022-12-11T22:16:17.290Z,81.60
2022-12-11T22:18:44.037Z,81.60
2022-12-11T22:21:10.767Z,81.50
2022-12-11T22:23:38.289Z,81.40
2022-12-11T22:26:08.727Z,81.50
2022-12-11T22:28:35.467Z,81.50
2022-12-11T22:31:02.231Z,81.50
2022-12-11T22:33:28.922Z,81.40
2022-12-11T22:35:58.192Z,81.50
2022-12-11T22:38:25.331Z,81.50
2022-12-11T22:40:52.755Z,81.40
2022-12-11T22:43:19.399Z,81.40
2022-12-11T22:45:46.336Z,81.40
2022-12-11T22:48:14.091Z,81.40
2022-12-11T22:50:41.231Z,81.40
2022-12-11T22:53:08.040Z,81.20
2022-12-11T22:55:34.927Z,81.20
2022-12-11T22:58:01.645Z,81.00
2022-12-11T23:00:28.260Z,81.00
2022-12-11T23:02:55.075Z,81.00
2022-12-11T23:05:21.951Z,81.00
2022-12-11T23:07:48.668Z,81.10
2022-12-11T23:10:15.427Z,81.10
2022-12-11T23:12:42.021Z,81.20
2022-12-11T23:15:09.130Z,81.20
2022-12-11T23:17:35.996Z,81.10
2022-12-11T23:20:04.285Z,81.20
2022-12-11T23:22:31.220Z,81.30
2022-12-11T23:24:57.945Z,81.40
2022-12-11T23:27:24.583Z,81.30
2022-12-11T23:29:51.268Z,81.40
2022-12-11T23:32:17.941Z,81.40
2022-12-11T23:34:44.582Z,81.50
2022-12-11T23:37:11.317Z,81.60
2022-12-11T23:39:37.973Z,81.80
2022-12-11T23:42:04.758Z,81.90
2022-12-11T23:44:31.429Z,81.90
2022-12-11T23:46:58.241Z,81.90
2022-12-11T23:49:25.057Z,82.00
2022-12-11T23:51:51.737Z,82.00
2022-12-11T23:54:18.403Z,81.90
2022-12-11T23:56:45.139Z,81.90
2022-12-11T23:59:13.023Z,82.00
